Time;durP1;ratioP1;P1;durP2;ratioP2;P2;SDS_P1;SDS_P2;PMS_P1;PMS_P2;Temp;Humidity;BMP_temperature;BMP_pressure;BME280_temperature;BME280_humidity;BME280_pressure;Samples;Min_cycle;Max_cycle;Signal;HPM_P1;HPM_P2
2022/08/06 00:02:00;;;;;;;6.03;2.60;;;15.20;99.90;;;;;;5034134;28;25056;-75
2022/08/06 00:04:25;;;;;;;7.72;2.45;;;15.20;99.90;;;;;;5038028;28;25150;-76
2022/08/06 00:06:51;;;;;;;11.73;3.63;;;15.20;99.90;;;;;;5042293;28;25144;-77
2022/08/06 00:09:16;;;;;;;6.60;2.03;;;15.20;99.90;;;;;;5034384;28;25069;-76
2022/08/06 00:11:43;;;;;;;9.68;2.80;;;15.10;99.90;;;;;;5041525;28;25063;-76
2022/08/06 00:14:09;;;;;;;7.05;2.40;;;15.20;99.90;;;;;;5037866;28;25070;-78
2022/08/06 00:16:35;;;;;;;6.90;2.05;;;15.10;99.90;;;;;;5044542;28;25138;-77
2022/08/06 00:19:00;;;;;;;5.45;1.95;;;15.10;99.90;;;;;;5034116;28;25072;-77
2022/08/06 00:21:26;;;;;;;9.63;2.72;;;15.00;99.90;;;;;;5033925;28;25099;-75
2022/08/06 00:23:52;;;;;;;3.28;2.10;;;15.00;99.90;;;;;;5039741;28;25101;-79
2022/08/06 00:26:17;;;;;;;8.13;2.25;;;15.00;99.90;;;;;;5045696;28;25172;-76
2022/08/06 00:28:43;;;;;;;7.82;2.28;;;14.90;99.90;;;;;;5035476;28;25055;-75
2022/08/06 00:31:09;;;;;;;6.10;2.20;;;14.90;99.90;;;;;;5042284;28;25090;-75
2022/08/06 00:33:35;;;;;;;6.40;2.15;;;15.00;99.90;;;;;;5042878;28;25066;-77
2022/08/06 00:36:01;;;;;;;9.70;2.78;;;14.90;99.90;;;;;;5027875;28;25057;-78
2022/08/06 00:38:26;;;;;;;5.75;2.28;;;15.00;99.90;;;;;;5037534;28;25076;-77
2022/08/06 00:40:53;;;;;;;6.90;2.00;;;15.00;99.90;;;;;;5041650;28;25062;-76
2022/08/06 00:43:18;;;;;;;8.13;2.03;;;15.10;99.90;;;;;;5032077;28;25069;-76
2022/08/06 00:45:44;;;;;;;8.25;2.33;;;15.00;99.90;;;;;;5042351;28;25148;-76
2022/08/06 00:48:10;;;;;;;8.55;2.33;;;15.00;99.90;;;;;;5030935;28;25099;-77
2022/08/06 00:50:35;;;;;;;7.03;2.30;;;14.90;99.90;;;;;;5038828;28;25134;-76
2022/08/06 00:53:03;;;;;;;7.07;2.40;;;14.90;99.90;;;;;;5041842;28;25070;-77
2022/08/06 00:55:30;;;;;;;10.23;2.45;;;14.80;99.90;;;;;;5041177;28;25088;-76
2022/08/06 00:57:55;;;;;;;7.18;1.92;;;14.90;99.90;;;;;;5048061;28;25054;-77
2022/08/06 01:00:21;;;;;;;7.63;2.20;;;14.90;99.90;;;;;;5039557;28;25056;-77
2022/08/06 01:02:46;;;;;;;7.82;2.28;;;14.80;99.90;;;;;;5049975;28;25107;-75
2022/08/06 01:05:12;;;;;;;6.22;2.38;;;14.80;99.90;;;;;;5037851;28;25144;-80
2022/08/06 01:07:38;;;;;;;5.50;2.00;;;14.70;99.90;;;;;;5038906;28;25054;-77
2022/08/06 01:10:04;;;;;;;7.60;2.53;;;14.70;99.90;;;;;;5043473;28;25071;-78
2022/08/06 01:12:29;;;;;;;10.48;2.58;;;14.70;99.90;;;;;;5045123;28;25071;-77
2022/08/06 01:14:55;;;;;;;5.40;2.50;;;14.60;99.90;;;;;;5039244;28;25157;-77
2022/08/06 01:17:39;;;;;;;5.97;2.33;;;14.60;99.90;;;;;;5042531;28;25088;-79
2022/08/06 01:20:16;;;;;;;6.97;2.08;;;14.60;99.90;;;;;;5045119;28;25071;-76
2022/08/06 01:22:58;;;;;;;6.97;2.97;;;14.60;99.90;;;;;;5056817;28;25102;-76
2022/08/06 01:26:05;;;;;;;9.20;2.17;;;14.60;99.90;;;;;;5046675;28;25081;-77
2022/08/06 01:28:41;;;;;;;8.55;2.60;;;14.60;99.90;;;;;;5044052;28;25061;-77
2022/08/06 01:31:11;;;;;;;8.20;2.20;;;14.60;99.90;;;;;;5048083;28;25067;-76
2022/08/06 01:34:10;;;;;;;5.15;2.22;;;14.70;99.90;;;;;;5044061;28;25102;-76
2022/08/06 01:36:50;;;;;;;7.75;2.25;;;14.70;99.90;;;;;;5050772;28;25130;-77
2022/08/06 01:39:19;;;;;;;5.20;2.10;;;14.50;99.90;;;;;;5041441;28;25054;-75
2022/08/06 01:41:48;;;;;;;7.18;2.67;;;14.50;99.90;;;;;;5048919;28;25061;-76
2022/08/06 01:44:20;;;;;;;7.75;2.25;;;14.40;99.90;;;;;;5057717;28;25139;-76
2022/08/06 01:46:55;;;;;;;6.43;2.22;;;14.40;99.90;;;;;;5054995;28;25152;-75
2022/08/06 01:49:27;;;;;;;7.90;2.03;;;14.40;99.90;;;;;;5052269;28;25063;-77
2022/08/06 01:51:55;;;;;;;7.35;2.03;;;14.50;99.90;;;;;;5057393;28;25050;-76
2022/08/06 01:54:22;;;;;;;5.68;2.25;;;14.50;99.90;;;;;;5052565;28;25085;-76
2022/08/06 01:56:52;;;;;;;9.60;2.50;;;14.40;99.90;;;;;;5064280;28;25085;-76
2022/08/06 01:59:21;;;;;;;7.28;2.05;;;14.40;99.90;;;;;;5047118;28;25050;-76
2022/08/06 02:01:52;;;;;;;8.68;2.50;;;14.40;99.90;;;;;;5044618;28;25052;-76
2022/08/06 02:04:20;;;;;;;5.75;2.10;;;14.50;99.90;;;;;;5035809;28;25062;-77
2022/08/06 02:06:47;;;;;;;6.20;2.47;;;14.50;99.90;;;;;;5042291;28;25058;-77
2022/08/06 02:09:17;;;;;;;11.07;2.13;;;14.60;99.90;;;;;;5040764;28;25066;-75
2022/08/06 02:11:46;;;;;;;7.07;2.33;;;14.50;99.90;;;;;;5044677;28;25073;-76
2022/08/06 02:14:14;;;;;;;4.97;2.30;;;14.60;99.90;;;;;;5037838;28;25057;-77
2022/08/06 02:16:42;;;;;;;7.28;2.67;;;14.60;99.90;;;;;;5040820;28;25073;-75
2022/08/06 02:19:10;;;;;;;7.68;2.78;;;14.60;99.90;;;;;;5048770;28;25084;-76
2022/08/06 02:21:37;;;;;;;7.82;2.08;;;14.50;99.90;;;;;;5035084;28;25108;-76
2022/08/06 02:24:06;;;;;;;8.90;2.40;;;14.40;99.90;;;;;;5039947;28;25119;-76
2022/08/06 02:26:35;;;;;;;7.80;2.30;;;14.40;99.90;;;;;;5042537;28;25072;-76
2022/08/06 02:29:05;;;;;;;7.50;2.20;;;14.40;99.90;;;;;;5047523;28;25076;-75
2022/08/06 02:31:31;;;;;;;6.00;1.95;;;14.40;99.90;;;;;;5047191;28;25136;-77
2022/08/06 02:33:57;;;;;;;4.50;1.55;;;14.40;99.90;;;;;;5044042;28;25302;-76
2022/08/06 02:36:43;;;;;;;9.05;2.08;;;14.30;99.90;;;;;;5054341;28;25061;-76
2022/08/06 02:39:14;;;;;;;11.15;2.20;;;14.30;99.90;;;;;;5053595;28;25054;-74
2022/08/06 02:42:04;;;;;;;8.70;2.28;;;14.30;99.90;;;;;;5041848;28;25095;-77
2022/08/06 02:44:40;;;;;;;10.02;2.22;;;14.30;99.90;;;;;;5052496;28;25144;-77
2022/08/06 02:47:22;;;;;;;5.60;2.17;;;14.40;99.90;;;;;;5052436;28;25100;-76
2022/08/06 02:49:52;;;;;;;5.88;2.10;;;14.40;99.90;;;;;;5070535;28;25061;-75
2022/08/06 02:52:25;;;;;;;12.57;2.30;;;14.40;99.90;;;;;;5065539;28;25069;-77
2022/08/06 02:54:56;;;;;;;8.45;2.38;;;14.30;99.90;;;;;;5047198;28;25106;-79
2022/08/06 02:57:30;;;;;;;8.50;1.75;;;14.40;99.90;;;;;;5042907;28;25060;-77
2022/08/06 03:00:03;;;;;;;8.75;1.85;;;14.40;99.90;;;;;;5045190;28;25050;-76
2022/08/06 03:02:30;;;;;;;8.70;2.05;;;14.40;99.90;;;;;;5056615;28;25047;-75
2022/08/06 03:04:57;;;;;;;7.43;2.13;;;14.40;99.90;;;;;;5042488;28;25079;-76
2022/08/06 03:07:27;;;;;;;7.75;1.90;;;14.60;99.90;;;;;;5045149;28;25469;-75
2022/08/06 03:09:55;;;;;;;5.25;1.92;;;14.60;99.90;;;;;;5044225;28;25145;-76
2022/08/06 03:12:21;;;;;;;5.22;2.08;;;14.60;99.90;;;;;;5029501;28;25060;-75
2022/08/06 03:14:49;;;;;;;6.28;2.58;;;14.60;99.90;;;;;;5032128;28;25065;-77
2022/08/06 03:17:16;;;;;;;7.45;2.28;;;14.60;99.90;;;;;;5037757;28;25070;-76
2022/08/06 03:19:44;;;;;;;6.00;2.08;;;14.80;99.90;;;;;;5034321;28;25064;-78
2022/08/06 03:22:11;;;;;;;5.97;1.70;;;14.70;99.90;;;;;;5033068;28;25106;-75
2022/08/06 03:24:39;;;;;;;9.82;1.90;;;14.50;99.90;;;;;;5032498;28;25081;-75
2022/08/06 03:27:06;;;;;;;6.40;2.10;;;14.50;99.90;;;;;;5036046;28;25117;-76
2022/08/06 03:29:33;;;;;;;6.97;2.22;;;14.40;99.90;;;;;;5036502;28;25069;-76
2022/08/06 03:32:00;;;;;;;6.32;2.15;;;14.30;99.90;;;;;;5049774;28;25100;-77
2022/08/06 03:34:27;;;;;;;10.40;2.05;;;14.30;99.90;;;;;;5040130;28;25062;-76
2022/08/06 03:36:55;;;;;;;6.18;2.10;;;14.20;99.90;;;;;;5034074;28;25072;-77
2022/08/06 03:39:23;;;;;;;5.57;1.92;;;14.30;99.90;;;;;;5036298;28;25076;-78
2022/08/06 03:41:49;;;;;;;6.55;2.40;;;14.20;99.90;;;;;;5039954;28;25136;-74
2022/08/06 03:44:15;;;;;;;8.65;2.25;;;14.20;99.90;;;;;;5031039;28;25061;-75
2022/08/06 03:46:42;;;;;;;7.60;2.20;;;14.20;99.90;;;;;;5029325;28;25072;-76
2022/08/06 03:49:14;;;;;;;7.03;1.80;;;14.20;99.90;;;;;;5027585;28;25064;-76
2022/08/06 03:51:42;;;;;;;8.10;2.30;;;14.20;99.90;;;;;;5028520;28;25064;-76
2022/08/06 03:54:08;;;;;;;5.65;1.70;;;14.20;99.90;;;;;;5029078;28;25109;-76
2022/08/06 03:56:36;;;;;;;6.88;2.10;;;14.30;99.90;;;;;;5036781;28;25062;-76
2022/08/06 03:59:04;;;;;;;6.03;2.10;;;14.40;99.90;;;;;;5030925;28;25109;-76
2022/08/06 04:01:34;;;;;;;7.97;2.10;;;14.40;99.90;;;;;;5032678;28;25096;-75
2022/08/06 04:04:00;;;;;;;5.43;1.80;;;14.30;99.90;;;;;;5012629;28;25098;-76
2022/08/06 04:06:27;;;;;;;3.83;1.38;;;14.20;99.90;;;;;;5040136;28;25132;-76
2022/08/06 04:08:54;;;;;;;4.70;1.90;;;14.30;99.90;;;;;;5053325;28;25109;-77
2022/08/06 04:11:21;;;;;;;7.95;1.83;;;14.10;99.90;;;;;;5035103;28;25166;-76
2022/08/06 04:13:47;;;;;;;6.50;2.10;;;14.10;99.90;;;;;;5044474;28;25074;-78
2022/08/06 04:16:14;;;;;;;7.72;1.90;;;14.10;99.90;;;;;;5044258;28;25157;-77
2022/08/06 04:18:41;;;;;;;6.03;1.70;;;14.10;99.90;;;;;;5041484;28;25106;-77
2022/08/06 04:21:14;;;;;;;6.85;2.08;;;14.10;99.90;;;;;;5046285;28;25060;-76
2022/08/06 04:23:39;;;;;;;8.80;2.25;;;14.00;99.90;;;;;;5041042;28;25130;-75
2022/08/06 04:26:07;;;;;;;5.95;1.83;;;14.10;99.90;;;;;;5047575;28;25400;-74
2022/08/06 04:28:36;;;;;;;5.05;1.90;;;14.20;99.90;;;;;;5041683;28;25095;-75
2022/08/06 04:31:02;;;;;;;4.47;1.77;;;14.10;99.90;;;;;;5035565;28;25004;-76
2022/08/06 04:33:30;;;;;;;4.95;1.85;;;14.10;99.90;;;;;;5037156;28;25104;-77
2022/08/06 04:35:58;;;;;;;8.00;1.83;;;14.00;99.90;;;;;;5036741;28;25155;-76
2022/08/06 04:38:24;;;;;;;8.35;1.85;;;14.10;99.90;;;;;;5036513;28;25064;-76
2022/08/06 04:40:50;;;;;;;3.92;2.65;;;14.10;99.90;;;;;;5039973;28;25053;-77
2022/08/06 04:43:16;;;;;;;3.45;1.92;;;14.20;99.90;;;;;;5032751;28;25134;-77
2022/08/06 04:45:43;;;;;;;9.15;2.17;;;14.20;99.90;;;;;;5035277;28;25050;-75
2022/08/06 04:48:10;;;;;;;8.70;2.33;;;14.20;99.90;;;;;;5039069;28;25077;-76
2022/08/06 04:50:37;;;;;;;10.30;2.28;;;14.30;99.90;;;;;;5039375;28;25136;-75
2022/08/06 04:53:10;;;;;;;6.82;2.25;;;14.30;99.90;;;;;;5032704;28;25061;-76
2022/08/06 04:55:36;;;;;;;8.57;2.60;;;14.40;99.90;;;;;;5039067;28;25068;-76
2022/08/06 04:58:03;;;;;;;9.00;2.33;;;14.60;99.90;;;;;;5031182;28;25114;-75
2022/08/06 05:00:33;;;;;;;4.95;1.88;;;14.60;99.90;;;;;;5040890;28;25068;-76
2022/08/06 05:02:59;;;;;;;8.32;2.35;;;14.60;99.90;;;;;;5054878;28;25118;-75
2022/08/06 05:05:25;;;;;;;8.48;2.05;;;14.60;99.90;;;;;;5036661;28;25057;-75
2022/08/06 05:07:55;;;;;;;9.10;2.30;;;14.60;99.90;;;;;;5034494;28;25103;-76
2022/08/06 05:10:25;;;;;;;10.27;2.50;;;14.60;99.90;;;;;;5031329;28;25159;-76
2022/08/06 05:12:55;;;;;;;6.72;2.00;;;14.60;99.90;;;;;;5034162;28;25155;-78
2022/08/06 05:15:33;;;;;;;6.55;2.15;;;14.70;99.90;;;;;;5030896;28;25117;-76
2022/08/06 05:18:22;;;;;;;6.22;1.95;;;14.70;99.90;;;;;;5034535;28;25068;-76
2022/08/06 05:20:51;;;;;;;4.13;1.73;;;14.80;99.90;;;;;;5052711;28;25147;-78
2022/08/06 05:23:29;;;;;;;5.93;2.42;;;14.90;99.90;;;;;;5055580;28;25077;-76
2022/08/06 05:25:54;;;;;;;5.20;2.08;;;14.90;99.90;;;;;;5035595;28;25073;-77
2022/08/06 05:28:20;;;;;;;7.88;2.60;;;15.00;99.90;;;;;;5049705;28;25054;-75
2022/08/06 05:30:49;;;;;;;7.38;2.22;;;15.10;99.90;;;;;;5035959;28;25065;-76
2022/08/06 05:33:32;;;;;;;4.20;1.65;;;15.10;99.90;;;;;;5045152;28;25068;-75
2022/08/06 05:36:00;;;;;;;5.82;2.15;;;15.20;99.90;;;;;;5033089;28;25159;-76
2022/08/06 05:38:26;;;;;;;7.40;2.40;;;15.20;99.90;;;;;;5035945;28;25063;-76
2022/08/06 05:40:52;;;;;;;8.23;2.35;;;15.20;99.90;;;;;;5040682;28;25065;-78
2022/08/06 05:43:18;;;;;;;4.68;2.13;;;15.30;99.90;;;;;;5044815;28;25122;-76
2022/08/06 05:45:46;;;;;;;3.63;1.90;;;15.30;99.90;;;;;;5041229;28;25059;-77
2022/08/06 05:48:13;;;;;;;7.05;2.33;;;15.50;99.90;;;;;;5037575;28;25125;-76
2022/08/06 05:50:44;;;;;;;9.63;2.33;;;15.70;99.90;;;;;;5050599;28;25060;-77
2022/08/06 05:53:16;;;;;;;6.07;1.97;;;15.80;99.90;;;;;;5042496;28;25119;-77
2022/08/06 05:55:56;;;;;;;3.40;1.70;;;15.90;99.90;;;;;;5043022;28;25137;-76
2022/08/06 05:59:03;;;;;;;3.67;1.92;;;16.00;99.90;;;;;;5053738;28;25110;-75
2022/08/06 06:01:31;;;;;;;4.85;1.55;;;16.10;99.90;;;;;;5030709;28;25044;-76
2022/08/06 06:03:57;;;;;;;7.05;1.77;;;16.30;99.90;;;;;;5045967;28;25045;-73
2022/08/06 06:06:24;;;;;;;5.00;1.83;;;16.40;99.90;;;;;;5057222;28;25071;-77
2022/08/06 06:08:50;;;;;;;3.53;1.92;;;16.50;99.90;;;;;;5045442;28;25078;-76
2022/08/06 06:11:16;;;;;;;3.88;1.63;;;16.60;99.90;;;;;;5048563;28;25075;-75
2022/08/06 06:13:43;;;;;;;4.25;1.85;;;16.80;99.90;;;;;;5053727;28;25085;-76
2022/08/06 06:16:52;;;;;;;5.97;1.50;;;16.90;99.90;;;;;;5058151;28;25062;-77
2022/08/06 06:19:27;;;;;;;2.78;1.10;;;16.90;99.90;;;;;;5038363;28;25070;-76
2022/08/06 06:22:05;;;;;;;3.63;1.10;;;16.80;99.90;;;;;;5034282;28;25060;-77
2022/08/06 06:24:59;;;;;;;3.67;0.98;;;16.80;99.90;;;;;;5053973;28;25085;-76
2022/08/06 06:27:37;;;;;;;5.70;1.17;;;17.00;99.90;;;;;;5035385;28;25091;-77
2022/08/06 06:30:05;;;;;;;3.58;0.90;;;16.90;99.90;;;;;;5059425;28;25098;-74
2022/08/06 06:32:41;;;;;;;3.13;0.90;;;17.10;99.90;;;;;;5067411;28;25075;-77
2022/08/06 06:35:41;;;;;;;3.45;0.93;;;17.30;99.90;;;;;;5054771;28;25098;-74
2022/08/06 06:38:31;;;;;;;5.75;0.98;;;17.40;99.90;;;;;;5055468;28;25063;-77
2022/08/06 06:41:08;;;;;;;2.65;1.17;;;17.30;99.90;;;;;;5046171;28;25057;-75
2022/08/06 06:43:39;;;;;;;4.65;0.63;;;17.30;99.90;;;;;;5032432;28;25126;-77
2022/08/06 06:46:23;;;;;;;4.15;1.00;;;17.20;99.90;;;;;;5042662;28;25059;-76
2022/08/06 06:48:54;;;;;;;6.85;1.00;;;17.30;99.90;;;;;;5031142;28;25071;-77
2022/08/06 06:51:27;;;;;;;1.40;0.60;;;17.50;99.90;;;;;;5031253;28;25103;-76
2022/08/06 06:53:54;;;;;;;2.67;0.93;;;17.40;99.90;;;;;;5041066;28;25142;-76
2022/08/06 06:56:25;;;;;;;7.30;1.15;;;17.30;99.90;;;;;;5036603;28;25091;-76
2022/08/06 06:59:08;;;;;;;3.13;0.60;;;17.20;99.90;;;;;;5035748;28;25054;-76
2022/08/06 07:01:34;;;;;;;;;;;17.30;99.90;;;;;;5039387;28;25150;-76
2022/08/06 07:04:02;;;;;;;2.10;0.90;;;17.40;99.90;;;;;;5047522;28;24105;-75
2022/08/06 07:06:30;;;;;;;6.50;0.82;;;17.60;99.90;;;;;;5038024;28;25128;-76
2022/08/06 07:08:56;;;;;;;2.35;0.80;;;17.40;99.90;;;;;;5041201;28;25073;-77
2022/08/06 07:11:25;;;;;;;4.88;1.20;;;17.20;99.90;;;;;;5037951;28;25082;-77
2022/08/06 07:13:52;;;;;;;3.83;0.75;;;17.30;99.90;;;;;;5049241;28;25064;-77
2022/08/06 07:16:20;;;;;;;2.78;0.70;;;17.60;99.90;;;;;;5050597;28;25065;-77
2022/08/06 07:18:47;;;;;;;3.90;0.73;;;17.80;99.90;;;;;;5045666;28;25057;-76
2022/08/06 07:21:15;;;;;;;4.05;0.55;;;18.00;99.90;;;;;;5058320;28;25105;-77
2022/08/06 07:23:44;;;;;;;3.60;0.70;;;18.00;99.90;;;;;;5058925;28;25069;-76
2022/08/06 07:26:12;;;;;;;4.88;0.63;;;18.00;99.90;;;;;;5047133;28;25049;-74
2022/08/06 07:28:39;;;;;;;4.30;0.75;;;17.70;99.90;;;;;;5045291;28;25052;-76
2022/08/06 07:31:06;;;;;;;1.25;0.50;;;17.70;99.90;;;;;;5019992;28;25060;-75
2022/08/06 07:33:34;;;;;;;7.05;0.98;;;18.20;99.90;;;;;;5040253;28;25068;-74
2022/08/06 07:36:00;;;;;;;2.92;0.70;;;18.50;99.90;;;;;;5038258;28;25062;-75
2022/08/06 07:38:28;;;;;;;0.52;0.50;;;18.50;99.90;;;;;;5040653;28;25055;-76
2022/08/06 07:40:58;;;;;;;3.38;0.68;;;18.50;99.90;;;;;;5047830;28;25062;-76
2022/08/06 07:43:45;;;;;;;2.17;0.68;;;18.50;99.90;;;;;;5048925;28;25087;-75
2022/08/06 07:46:16;;;;;;;3.17;0.95;;;18.60;99.90;;;;;;5034614;28;25096;-75
2022/08/06 07:48:47;;;;;;;3.90;0.70;;;18.80;99.90;;;;;;5054678;28;25057;-74
2022/08/06 07:51:14;;;;;;;2.65;1.05;;;19.20;99.90;;;;;;5040458;28;25127;-74
2022/08/06 07:53:41;;;;;;;0.50;0.50;;;19.30;99.90;;;;;;5042070;28;25077;-75
2022/08/06 07:56:09;;;;;;;3.33;0.60;;;19.00;99.90;;;;;;5037201;28;25062;-76
2022/08/06 07:58:36;;;;;;;5.00;0.90;;;19.00;99.90;;;;;;5035081;28;25146;-74
2022/08/06 08:01:02;;;;;;;3.70;0.80;;;18.90;99.90;;;;;;5042966;28;25070;-75
2022/08/06 08:06:18;;;;;;;2.97;0.70;;;19.40;99.90;;;;;;5047341;28;25068;-75
2022/08/06 08:08:45;;;;;;;2.67;0.70;;;19.80;99.90;;;;;;5058665;28;25125;-74
2022/08/06 08:11:14;;;;;;;2.58;0.90;;;19.70;99.90;;;;;;5041056;28;25088;-75
2022/08/06 08:13:41;;;;;;;4.57;0.88;;;20.30;99.90;;;;;;5056802;28;25082;-76
2022/08/06 08:16:09;;;;;;;1.02;0.30;;;20.00;99.90;;;;;;5044149;28;25090;-75
2022/08/06 08:18:35;;;;;;;1.67;0.63;;;19.70;99.90;;;;;;5046790;28;25051;-75
2022/08/06 08:21:02;;;;;;;3.22;1.35;;;19.50;99.90;;;;;;5039454;28;24996;-74
2022/08/06 08:23:32;;;;;;;5.32;0.80;;;19.50;99.90;;;;;;5047863;28;25104;-74
2022/08/06 08:25:59;;;;;;;3.28;0.73;;;19.80;99.90;;;;;;5041315;28;25069;-74
2022/08/06 08:28:25;;;;;;;4.38;0.90;;;19.90;99.90;;;;;;5041714;28;25063;-73
2022/08/06 08:30:51;;;;;;;2.08;0.60;;;20.00;99.90;;;;;;5044931;28;25151;-74
2022/08/06 08:33:18;;;;;;;3.50;0.93;;;19.50;99.90;;;;;;5039316;28;25109;-74
2022/08/06 08:35:45;;;;;;;5.45;0.90;;;19.50;99.90;;;;;;5053648;28;25058;-75
2022/08/06 08:38:10;;;;;;;2.50;0.88;;;19.50;99.90;;;;;;5040968;28;25091;-74
2022/08/06 08:40:36;;;;;;;2.33;0.90;;;19.50;99.90;;;;;;5045804;28;25059;-76
2022/08/06 08:43:04;;;;;;;3.03;0.43;;;20.00;99.90;;;;;;5035527;28;25068;-74
2022/08/06 08:45:30;;;;;;;2.65;0.75;;;19.90;99.90;;;;;;5042256;28;25077;-73
2022/08/06 08:47:57;;;;;;;2.45;0.60;;;19.90;99.90;;;;;;5055125;28;25063;-71
2022/08/06 08:50:27;;;;;;;3.15;0.80;;;19.90;99.90;;;;;;5047336;28;25063;-73
2022/08/06 08:53:01;;;;;;;3.30;0.95;;;19.70;99.90;;;;;;5044682;28;25071;-73
2022/08/06 08:55:28;;;;;;;2.25;0.63;;;19.30;99.90;;;;;;5055252;28;25070;-73
2022/08/06 08:57:55;;;;;;;2.17;0.45;;;18.80;99.90;;;;;;5052605;28;25071;-74
2022/08/06 09:00:21;;;;;;;3.38;0.50;;;18.70;99.90;;;;;;5054437;28;25146;-73
2022/08/06 09:02:47;;;;;;;3.95;0.60;;;18.90;99.90;;;;;;5050357;28;25082;-73
2022/08/06 09:05:13;;;;;;;3.83;0.88;;;19.30;99.90;;;;;;5047176;28;25078;-73
2022/08/06 09:07:39;;;;;;;4.85;0.95;;;19.60;99.90;;;;;;5048594;28;25060;-72
2022/08/06 09:10:07;;;;;;;2.28;1.10;;;20.20;99.90;;;;;;5041885;28;25091;-72
2022/08/06 09:12:33;;;;;;;4.47;0.70;;;20.60;99.90;;;;;;5041472;28;25062;-73
2022/08/06 09:14:59;;;;;;;0.82;0.60;;;20.50;99.90;;;;;;5039272;28;25058;-73
2022/08/06 09:17:25;;;;;;;1.15;0.68;;;20.40;99.90;;;;;;5034610;28;25073;-74
2022/08/06 09:19:51;;;;;;;4.03;0.80;;;20.80;99.90;;;;;;5036001;28;25054;-72
2022/08/06 09:22:17;;;;;;;2.05;0.70;;;20.60;99.90;;;;;;5037787;28;25062;-75
2022/08/06 09:24:44;;;;;;;1.95;0.80;;;20.30;99.90;;;;;;5038155;28;25159;-72
2022/08/06 09:27:15;;;;;;;1.92;0.70;;;20.40;99.90;;;;;;5035388;28;25080;-74
2022/08/06 09:29:58;;;;;;;1.90;0.60;;;20.80;99.90;;;;;;5031868;28;25065;-74
2022/08/06 09:32:44;;;;;;;1.80;0.63;;;21.00;99.90;;;;;;5036319;28;25077;-73
2022/08/06 09:35:20;;;;;;;1.77;0.85;;;21.20;99.90;;;;;;5046735;28;25063;-73
2022/08/06 09:37:46;;;;;;;1.60;0.70;;;21.40;99.90;;;;;;5046151;28;25165;-73
2022/08/06 09:40:14;;;;;;;2.10;0.80;;;21.00;99.90;;;;;;5044913;28;25093;-73
2022/08/06 09:42:42;;;;;;;3.70;0.95;;;21.20;98.80;;;;;;5061681;28;25071;-72
2022/08/06 09:45:09;;;;;;;4.70;0.80;;;20.90;99.90;;;;;;5034550;28;25083;-74
2022/08/06 09:47:37;;;;;;;4.53;0.70;;;21.30;99.90;;;;;;5044879;28;25070;-74
2022/08/06 09:50:05;;;;;;;4.93;0.70;;;21.70;99.90;;;;;;5035673;28;25127;-74
2022/08/06 09:52:30;;;;;;;5.47;0.80;;;21.70;97.20;;;;;;5044061;28;25178;-73
2022/08/06 09:54:56;;;;;;;4.05;0.90;;;21.70;93.60;;;;;;5024529;28;25094;-75
2022/08/06 09:57:23;;;;;;;2.03;0.90;;;22.20;91.50;;;;;;5037199;28;25079;-73
2022/08/06 09:59:48;;;;;;;2.65;0.80;;;22.00;86.00;;;;;;5033172;28;25074;-72
2022/08/06 10:02:17;;;;;;;1.80;1.02;;;21.60;79.40;;;;;;5030406;28;25163;-73
2022/08/06 10:04:43;;;;;;;3.92;0.77;;;20.90;91.60;;;;;;5031734;28;25073;-73
2022/08/06 10:07:09;;;;;;;2.22;0.80;;;20.50;96.50;;;;;;5042100;28;25058;-73
2022/08/06 10:09:37;;;;;;;1.20;0.50;;;21.40;96.40;;;;;;5041589;28;25071;-74
2022/08/06 10:12:20;;;;;;;1.48;0.73;;;21.40;95.80;;;;;;5039555;28;25147;-74
2022/08/06 10:14:46;;;;;;;7.65;1.58;;;21.70;93.40;;;;;;5041237;28;25101;-74
2022/08/06 10:17:13;;;;;;;1.00;0.70;;;21.40;95.60;;;;;;5038420;28;25117;-74
2022/08/06 10:19:41;;;;;;;2.00;0.80;;;21.30;98.80;;;;;;5044982;28;25133;-73
2022/08/06 10:22:15;;;;;;;4.28;0.75;;;21.10;96.60;;;;;;5040772;28;25086;-73
2022/08/06 10:24:43;;;;;;;1.40;0.70;;;21.40;96.20;;;;;;5043673;28;25155;-73
2022/08/06 10:27:12;;;;;;;3.63;0.82;;;22.20;90.10;;;;;;5042036;28;25057;-73
2022/08/06 10:29:57;;;;;;;3.83;1.33;;;21.90;83.00;;;;;;5033555;28;25062;-71
2022/08/06 10:32:29;;;;;;;1.35;1.02;;;22.00;64.90;;;;;;5035984;28;25061;-74
2022/08/06 10:34:57;;;;;;;3.88;1.30;;;21.80;82.80;;;;;;5038326;28;25160;-73
2022/08/06 10:37:23;;;;;;;3.45;1.20;;;22.30;82.70;;;;;;5041193;28;25120;-74
2022/08/06 10:39:56;;;;;;;4.63;0.70;;;22.70;78.30;;;;;;5036370;28;25068;-72
2022/08/06 10:42:23;;;;;;;2.33;0.73;;;23.00;66.10;;;;;;5040060;28;25089;-75
2022/08/06 10:44:52;;;;;;;3.05;1.55;;;22.80;67.80;;;;;;5035514;28;25162;-74
2022/08/06 10:47:19;;;;;;;3.08;1.35;;;22.50;74.70;;;;;;5037640;28;25148;-74
2022/08/06 10:49:45;;;;;;;4.03;1.15;;;21.90;85.10;;;;;;5039438;28;25122;-73
2022/08/06 10:52:12;;;;;;;3.58;0.82;;;21.90;91.10;;;;;;5050593;28;25020;-73
2022/08/06 10:54:39;;;;;;;4.70;1.33;;;21.20;94.50;;;;;;5048297;28;25068;-75
2022/08/06 10:57:06;;;;;;;5.78;0.93;;;21.00;97.80;;;;;;5050041;28;25098;-76
2022/08/06 10:59:32;;;;;;;2.58;0.90;;;20.90;98.80;;;;;;5041231;28;25131;-75
2022/08/06 11:02:03;;;;;;;3.58;0.80;;;21.00;97.10;;;;;;5045629;28;25140;-74
2022/08/06 11:04:48;;;;;;;8.18;1.48;;;20.80;97.10;;;;;;5047857;28;25078;-71
2022/08/06 11:07:44;;;;;;;2.13;0.80;;;21.80;96.60;;;;;;5059431;28;25107;-73
2022/08/06 11:10:22;;;;;;;2.30;0.70;;;22.30;86.40;;;;;;5051817;28;25060;-73
2022/08/06 11:12:53;;;;;;;1.13;0.73;;;22.90;67.50;;;;;;5042964;28;25100;-73
2022/08/06 11:15:19;;;;;;;2.95;0.77;;;23.10;37.60;;;;;;5039252;28;25086;-73
2022/08/06 11:17:53;;;;;;;1.33;0.65;;;22.90;12.40;;;;;;5037802;28;25057;-74
2022/08/06 11:20:36;;;;;;;1.15;0.80;;;22.70;14.50;;;;;;5030963;28;25070;-74
2022/08/06 11:23:05;;;;;;;3.92;0.73;;;22.20;20.00;;;;;;5033046;28;25081;-73
2022/08/06 11:25:45;;;;;;;1.65;0.60;;;22.50;30.70;;;;;;5035670;28;25071;-73
2022/08/06 11:28:14;;;;;;;2.33;0.75;;;23.20;17.10;;;;;;5036678;28;25078;-73
2022/08/06 11:30:50;;;;;;;6.68;1.05;;;23.40;13.70;;;;;;5047949;28;25092;-75
2022/08/06 11:33:39;;;;;;;2.30;0.82;;;23.40;5.20;;;;;;5044822;28;25158;-73
2022/08/06 11:36:10;;;;;;;1.42;0.70;;;23.70;1.40;;;;;;5041206;28;25060;-74
2022/08/06 11:38:51;;;;;;;1.35;1.20;;;24.20;1.00;;;;;;5040888;28;25061;-75
2022/08/06 11:41:25;;;;;;;2.33;0.80;;;24.10;1.00;;;;;;5043557;28;25091;-74
2022/08/06 11:43:53;;;;;;;4.57;1.58;;;23.10;11.80;;;;;;5035990;28;25108;-74
2022/08/06 11:46:21;;;;;;;4.38;1.00;;;22.30;30.30;;;;;;5035026;28;25071;-75
2022/08/06 11:48:59;;;;;;;2.58;1.00;;;21.60;48.60;;;;;;5027594;28;25099;-74
2022/08/06 11:51:38;;;;;;;4.18;1.40;;;20.90;60.00;;;;;;5046030;28;25146;-77
2022/08/06 11:54:25;;;;;;;6.03;1.10;;;20.60;71.20;;;;;;5050727;28;25167;-74
2022/08/06 11:57:09;;;;;;;1.63;1.10;;;20.80;81.50;;;;;;5052657;28;25268;-75
2022/08/06 11:59:47;;;;;;;4.03;1.10;;;20.50;90.00;;;;;;5035640;28;25182;-73
2022/08/06 12:02:34;;;;;;;4.03;1.00;;;20.50;90.60;;;;;;5035768;28;25059;-73
2022/08/06 12:04:59;;;;;;;3.50;0.80;;;21.50;90.10;;;;;;5044606;28;25076;-74
2022/08/06 12:07:28;;;;;;;5.65;1.00;;;22.00;75.20;;;;;;5040338;28;25070;-75
2022/08/06 12:10:09;;;;;;;1.55;1.10;;;22.10;71.90;;;;;;5040777;28;25071;-74
2022/08/06 12:12:48;;;;;;;1.73;1.17;;;22.50;54.90;;;;;;5041361;28;25063;-73
2022/08/06 12:15:16;;;;;;;1.95;0.95;;;22.20;53.20;;;;;;5033078;28;25084;-74
2022/08/06 12:17:58;;;;;;;4.57;1.25;;;22.60;43.10;;;;;;5040430;28;25058;-73
2022/08/06 12:20:35;;;;;;;4.03;1.10;;;22.90;29.60;;;;;;5038121;28;25073;-74
2022/08/06 12:23:06;;;;;;;5.18;0.93;;;22.90;17.30;;;;;;5035066;28;25091;-75
2022/08/06 12:25:46;;;;;;;31.55;2.42;;;22.70;21.20;;;;;;5045134;28;25098;-74
2022/08/06 12:28:14;;;;;;;2.40;0.90;;;23.60;10.30;;;;;;5042066;28;25123;-73
2022/08/06 12:30:41;;;;;;;1.75;0.90;;;24.20;1.00;;;;;;5036451;28;25076;-74
2022/08/06 12:33:08;;;;;;;2.40;1.30;;;23.80;1.00;;;;;;5033608;28;25164;-72
2022/08/06 12:35:34;;;;;;;2.17;1.40;;;23.60;1.00;;;;;;5041558;28;25076;-75
2022/08/06 12:38:00;;;;;;;6.20;1.92;;;23.10;1.00;;;;;;5037362;28;25090;-73
2022/08/06 12:40:28;;;;;;;4.20;1.63;;;22.50;1.00;;;;;;5035913;28;25094;-74
2022/08/06 12:43:09;;;;;;;4.88;3.10;;;23.20;1.00;;;;;;5037647;28;25080;-75
2022/08/06 12:45:35;;;;;;;4.30;1.67;;;22.40;1.00;;;;;;5039665;28;25145;-73
2022/08/06 12:48:10;;;;;;;2.53;1.58;;;23.00;1.00;;;;;;5046700;28;25072;-73
2022/08/06 12:50:39;;;;;;;1.20;1.10;;;23.80;1.00;;;;;;5043019;28;25059;-74
2022/08/06 12:53:14;;;;;;;3.38;1.30;;;23.30;1.00;;;;;;5039111;28;25066;-78
2022/08/06 12:55:49;;;;;;;3.88;1.70;;;23.20;1.00;;;;;;5037999;28;25061;-75
2022/08/06 12:58:20;;;;;;;3.00;1.63;;;22.00;1.00;;;;;;5036068;28;25139;-77
2022/08/06 13:00:49;;;;;;;1.55;1.30;;;21.40;18.60;;;;;;5048570;28;25101;-77
2022/08/06 13:03:16;;;;;;;3.60;1.25;;;21.50;23.30;;;;;;5042403;28;25123;-78
2022/08/06 13:05:44;;;;;;;3.10;1.75;;;21.50;28.40;;;;;;5034449;28;25144;-75
2022/08/06 13:08:12;;;;;;;3.92;1.30;;;21.70;32.00;;;;;;5042607;28;25078;-75